sensor_id;sensor_type;location;lat;lon;timestamp;P1;durP1;ratioP1;P2;durP2;ratioP2
70576;SDS011;58138;43.138;24.702;2023-08-21T00:02:03;10.23;;;7.20;;
70576;SDS011;58138;43.138;24.702;2023-08-21T00:04:29;10.65;;;7.22;;
70576;SDS011;58138;43.138;24.702;2023-08-21T00:06:55;9.80;;;6.95;;
70576;SDS011;58138;43.138;24.702;2023-08-21T00:09:21;7.93;;;6.78;;
70576;SDS011;58138;43.138;24.702;2023-08-21T00:11:46;9.65;;;6.80;;
70576;SDS011;58138;43.138;24.702;2023-08-21T00:14:12;8.32;;;6.97;;
70576;SDS011;58138;43.138;24.702;2023-08-21T00:16:37;8.50;;;7.38;;
70576;SDS011;58138;43.138;24.702;2023-08-21T00:19:03;9.18;;;7.32;;
70576;SDS011;58138;43.138;24.702;2023-08-21T00:21:28;10.93;;;8.15;;
70576;SDS011;58138;43.138;24.702;2023-08-21T00:23:54;8.63;;;6.30;;
70576;SDS011;58138;43.138;24.702;2023-08-21T00:26:20;7.63;;;5.70;;
70576;SDS011;58138;43.138;24.702;2023-08-21T00:28:45;10.23;;;7.05;;
70576;SDS011;58138;43.138;24.702;2023-08-21T00:31:14;8.48;;;7.28;;
70576;SDS011;58138;43.138;24.702;2023-08-21T00:33:39;12.07;;;7.45;;
70576;SDS011;58138;43.138;24.702;2023-08-21T00:36:05;8.07;;;6.80;;
70576;SDS011;58138;43.138;24.702;2023-08-21T00:38:31;7.35;;;6.65;;
70576;SDS011;58138;43.138;24.702;2023-08-21T00:40:56;9.45;;;7.50;;
70576;SDS011;58138;43.138;24.702;2023-08-21T00:43:22;7.65;;;6.82;;
70576;SDS011;58138;43.138;24.702;2023-08-21T00:45:48;9.73;;;6.72;;
70576;SDS011;58138;43.138;24.702;2023-08-21T00:48:15;9.50;;;5.68;;
70576;SDS011;58138;43.138;24.702;2023-08-21T00:50:40;11.52;;;7.53;;
70576;SDS011;58138;43.138;24.702;2023-08-21T00:53:06;9.80;;;7.30;;
70576;SDS011;58138;43.138;24.702;2023-08-21T00:55:32;9.02;;;6.95;;
70576;SDS011;58138;43.138;24.702;2023-08-21T00:57:58;10.70;;;7.47;;
70576;SDS011;58138;43.138;24.702;2023-08-21T01:00:24;8.65;;;6.38;;
70576;SDS011;58138;43.138;24.702;2023-08-21T01:02:50;8.23;;;7.35;;
70576;SDS011;58138;43.138;24.702;2023-08-21T01:05:17;9.73;;;7.60;;
70576;SDS011;58138;43.138;24.702;2023-08-21T01:07:46;8.77;;;7.40;;
70576;SDS011;58138;43.138;24.702;2023-08-21T01:10:36;10.02;;;7.70;;
70576;SDS011;58138;43.138;24.702;2023-08-21T01:15:51;7.25;;;6.28;;
70576;SDS011;58138;43.138;24.702;2023-08-21T01:18:19;8.02;;;6.93;;
70576;SDS011;58138;43.138;24.702;2023-08-21T01:20:46;12.73;;;7.57;;
70576;SDS011;58138;43.138;24.702;2023-08-21T01:23:26;11.15;;;7.45;;
70576;SDS011;58138;43.138;24.702;2023-08-21T01:25:53;8.93;;;7.57;;
70576;SDS011;58138;43.138;24.702;2023-08-21T01:28:18;8.00;;;7.20;;
70576;SDS011;58138;43.138;24.702;2023-08-21T01:30:44;12.75;;;7.50;;
70576;SDS011;58138;43.138;24.702;2023-08-21T01:33:10;14.02;;;7.18;;
70576;SDS011;58138;43.138;24.702;2023-08-21T01:35:38;6.57;;;5.45;;
70576;SDS011;58138;43.138;24.702;2023-08-21T01:38:04;8.10;;;6.82;;
70576;SDS011;58138;43.138;24.702;2023-08-21T01:40:30;10.55;;;7.07;;
70576;SDS011;58138;43.138;24.702;2023-08-21T01:42:55;9.82;;;7.03;;
70576;SDS011;58138;43.138;24.702;2023-08-21T01:45:21;10.55;;;7.28;;
70576;SDS011;58138;43.138;24.702;2023-08-21T01:47:47;11.50;;;7.78;;
70576;SDS011;58138;43.138;24.702;2023-08-21T01:50:12;14.27;;;6.80;;
70576;SDS011;58138;43.138;24.702;2023-08-21T01:52:38;10.60;;;6.65;;
70576;SDS011;58138;43.138;24.702;2023-08-21T01:55:04;11.40;;;7.18;;
70576;SDS011;58138;43.138;24.702;2023-08-21T01:57:32;10.57;;;7.35;;
70576;SDS011;58138;43.138;24.702;2023-08-21T01:59:58;8.52;;;7.30;;
70576;SDS011;58138;43.138;24.702;2023-08-21T02:02:24;8.35;;;6.82;;
70576;SDS011;58138;43.138;24.702;2023-08-21T02:04:49;8.48;;;7.07;;
70576;SDS011;58138;43.138;24.702;2023-08-21T02:07:15;10.40;;;7.70;;
70576;SDS011;58138;43.138;24.702;2023-08-21T02:09:40;11.32;;;7.88;;
70576;SDS011;58138;43.138;24.702;2023-08-21T02:12:06;8.05;;;6.95;;
70576;SDS011;58138;43.138;24.702;2023-08-21T02:14:31;10.35;;;8.18;;
70576;SDS011;58138;43.138;24.702;2023-08-21T02:16:57;11.20;;;7.43;;
70576;SDS011;58138;43.138;24.702;2023-08-21T02:19:22;8.82;;;7.32;;
70576;SDS011;58138;43.138;24.702;2023-08-21T02:21:48;9.73;;;7.45;;
70576;SDS011;58138;43.138;24.702;2023-08-21T02:24:14;10.13;;;7.20;;
70576;SDS011;58138;43.138;24.702;2023-08-21T02:26:39;11.98;;;7.80;;
70576;SDS011;58138;43.138;24.702;2023-08-21T02:29:05;8.25;;;7.45;;
70576;SDS011;58138;43.138;24.702;2023-08-21T02:31:30;8.93;;;8.02;;
70576;SDS011;58138;43.138;24.702;2023-08-21T02:33:56;8.30;;;7.30;;
70576;SDS011;58138;43.138;24.702;2023-08-21T02:36:21;9.68;;;7.38;;
70576;SDS011;58138;43.138;24.702;2023-08-21T02:38:49;10.27;;;7.70;;
70576;SDS011;58138;43.138;24.702;2023-08-21T02:41:14;11.20;;;7.68;;
70576;SDS011;58138;43.138;24.702;2023-08-21T02:43:40;8.18;;;7.20;;
70576;SDS011;58138;43.138;24.702;2023-08-21T02:46:05;9.52;;;7.53;;
70576;SDS011;58138;43.138;24.702;2023-08-21T02:48:34;8.95;;;7.60;;
70576;SDS011;58138;43.138;24.702;2023-08-21T02:51:00;9.63;;;7.82;;
70576;SDS011;58138;43.138;24.702;2023-08-21T02:53:27;9.30;;;7.72;;
70576;SDS011;58138;43.138;24.702;2023-08-21T02:55:53;9.32;;;7.93;;
70576;SDS011;58138;43.138;24.702;2023-08-21T02:58:19;8.27;;;7.38;;
70576;SDS011;58138;43.138;24.702;2023-08-21T03:00:44;10.45;;;7.85;;
70576;SDS011;58138;43.138;24.702;2023-08-21T03:03:10;10.50;;;8.40;;
70576;SDS011;58138;43.138;24.702;2023-08-21T03:05:36;26.40;;;8.88;;
70576;SDS011;58138;43.138;24.702;2023-08-21T03:08:02;12.00;;;7.07;;
70576;SDS011;58138;43.138;24.702;2023-08-21T03:10:27;12.45;;;7.60;;
70576;SDS011;58138;43.138;24.702;2023-08-21T03:12:54;8.70;;;7.40;;
70576;SDS011;58138;43.138;24.702;2023-08-21T03:15:20;11.30;;;7.93;;
70576;SDS011;58138;43.138;24.702;2023-08-21T03:17:46;8.77;;;7.72;;
70576;SDS011;58138;43.138;24.702;2023-08-21T03:20:11;10.55;;;8.18;;
70576;SDS011;58138;43.138;24.702;2023-08-21T03:22:37;11.82;;;7.82;;
70576;SDS011;58138;43.138;24.702;2023-08-21T03:25:02;9.15;;;8.00;;
70576;SDS011;58138;43.138;24.702;2023-08-21T03:27:28;8.70;;;7.53;;
70576;SDS011;58138;43.138;24.702;2023-08-21T03:29:54;10.77;;;8.43;;
70576;SDS011;58138;43.138;24.702;2023-08-21T03:32:19;11.68;;;8.30;;
70576;SDS011;58138;43.138;24.702;2023-08-21T03:34:45;8.70;;;7.75;;
70576;SDS011;58138;43.138;24.702;2023-08-21T03:37:11;11.10;;;8.40;;
70576;SDS011;58138;43.138;24.702;2023-08-21T03:39:36;10.80;;;8.60;;
70576;SDS011;58138;43.138;24.702;2023-08-21T03:42:02;10.65;;;8.48;;
70576;SDS011;58138;43.138;24.702;2023-08-21T03:44:28;12.05;;;8.60;;
70576;SDS011;58138;43.138;24.702;2023-08-21T03:46:53;8.77;;;7.88;;
70576;SDS011;58138;43.138;24.702;2023-08-21T03:49:19;8.52;;;7.63;;
70576;SDS011;58138;43.138;24.702;2023-08-21T03:51:44;14.45;;;7.80;;
70576;SDS011;58138;43.138;24.702;2023-08-21T03:54:10;8.80;;;7.88;;
70576;SDS011;58138;43.138;24.702;2023-08-21T03:56:36;12.07;;;8.57;;
70576;SDS011;58138;43.138;24.702;2023-08-21T03:59:01;9.38;;;8.05;;
70576;SDS011;58138;43.138;24.702;2023-08-21T04:01:27;10.05;;;7.15;;
70576;SDS011;58138;43.138;24.702;2023-08-21T04:03:52;12.80;;;8.18;;
70576;SDS011;58138;43.138;24.702;2023-08-21T04:06:18;10.32;;;8.45;;
70576;SDS011;58138;43.138;24.702;2023-08-21T04:08:44;10.93;;;9.18;;
70576;SDS011;58138;43.138;24.702;2023-08-21T04:11:09;9.65;;;8.60;;
70576;SDS011;58138;43.138;24.702;2023-08-21T04:13:35;8.93;;;7.25;;
70576;SDS011;58138;43.138;24.702;2023-08-21T04:16:00;11.15;;;8.95;;
70576;SDS011;58138;43.138;24.702;2023-08-21T04:18:26;10.18;;;8.95;;
70576;SDS011;58138;43.138;24.702;2023-08-21T04:20:52;13.00;;;8.65;;
70576;SDS011;58138;43.138;24.702;2023-08-21T04:23:17;18.13;;;9.50;;
70576;SDS011;58138;43.138;24.702;2023-08-21T04:25:43;9.90;;;8.82;;
70576;SDS011;58138;43.138;24.702;2023-08-21T04:28:09;13.27;;;9.50;;
70576;SDS011;58138;43.138;24.702;2023-08-21T04:30:34;11.45;;;9.13;;
70576;SDS011;58138;43.138;24.702;2023-08-21T04:33:00;11.23;;;8.13;;
70576;SDS011;58138;43.138;24.702;2023-08-21T04:35:26;16.67;;;8.35;;
70576;SDS011;58138;43.138;24.702;2023-08-21T04:37:51;14.50;;;8.35;;
70576;SDS011;58138;43.138;24.702;2023-08-21T04:40:17;9.20;;;7.68;;
70576;SDS011;58138;43.138;24.702;2023-08-21T04:42:45;8.68;;;7.68;;
70576;SDS011;58138;43.138;24.702;2023-08-21T04:45:10;11.00;;;8.20;;
70576;SDS011;58138;43.138;24.702;2023-08-21T04:47:36;18.77;;;9.20;;
70576;SDS011;58138;43.138;24.702;2023-08-21T04:50:02;11.65;;;7.68;;
70576;SDS011;58138;43.138;24.702;2023-08-21T04:52:27;9.23;;;8.20;;
70576;SDS011;58138;43.138;24.702;2023-08-21T04:54:53;17.02;;;8.55;;
70576;SDS011;58138;43.138;24.702;2023-08-21T04:57:19;13.20;;;8.10;;
70576;SDS011;58138;43.138;24.702;2023-08-21T04:59:46;14.23;;;8.70;;
70576;SDS011;58138;43.138;24.702;2023-08-21T05:02:11;13.50;;;8.27;;
70576;SDS011;58138;43.138;24.702;2023-08-21T05:04:37;9.70;;;7.38;;
70576;SDS011;58138;43.138;24.702;2023-08-21T05:07:03;10.68;;;8.35;;
70576;SDS011;58138;43.138;24.702;2023-08-21T05:09:29;18.98;;;14.45;;
70576;SDS011;58138;43.138;24.702;2023-08-21T05:11:55;10.95;;;8.05;;
70576;SDS011;58138;43.138;24.702;2023-08-21T05:14:21;13.13;;;8.68;;
70576;SDS011;58138;43.138;24.702;2023-08-21T05:16:48;12.25;;;8.32;;
70576;SDS011;58138;43.138;24.702;2023-08-21T05:19:14;12.88;;;8.60;;
70576;SDS011;58138;43.138;24.702;2023-08-21T05:21:39;13.80;;;7.47;;
70576;SDS011;58138;43.138;24.702;2023-08-21T05:24:05;11.65;;;8.65;;
70576;SDS011;58138;43.138;24.702;2023-08-21T05:26:30;14.60;;;8.07;;
70576;SDS011;58138;43.138;24.702;2023-08-21T05:28:56;11.85;;;8.80;;
70576;SDS011;58138;43.138;24.702;2023-08-21T05:31:21;8.35;;;7.55;;
70576;SDS011;58138;43.138;24.702;2023-08-21T05:33:47;10.52;;;7.38;;
70576;SDS011;58138;43.138;24.702;2023-08-21T05:36:13;11.50;;;7.47;;
70576;SDS011;58138;43.138;24.702;2023-08-21T05:38:38;8.35;;;7.13;;
70576;SDS011;58138;43.138;24.702;2023-08-21T05:41:04;9.07;;;7.63;;
70576;SDS011;58138;43.138;24.702;2023-08-21T05:43:29;8.20;;;6.90;;
70576;SDS011;58138;43.138;24.702;2023-08-21T05:45:55;10.70;;;7.22;;
70576;SDS011;58138;43.138;24.702;2023-08-21T05:48:21;11.65;;;7.57;;
70576;SDS011;58138;43.138;24.702;2023-08-21T05:50:55;10.40;;;7.32;;
70576;SDS011;58138;43.138;24.702;2023-08-21T05:53:22;10.75;;;6.60;;
70576;SDS011;58138;43.138;24.702;2023-08-21T05:55:47;10.57;;;6.68;;
70576;SDS011;58138;43.138;24.702;2023-08-21T05:58:13;9.50;;;6.65;;
70576;SDS011;58138;43.138;24.702;2023-08-21T06:00:38;11.65;;;7.18;;
70576;SDS011;58138;43.138;24.702;2023-08-21T06:03:04;10.48;;;6.97;;
70576;SDS011;58138;43.138;24.702;2023-08-21T06:05:30;9.27;;;6.47;;
70576;SDS011;58138;43.138;24.702;2023-08-21T06:07:55;7.03;;;6.32;;
70576;SDS011;58138;43.138;24.702;2023-08-21T06:10:21;10.23;;;6.40;;
70576;SDS011;58138;43.138;24.702;2023-08-21T06:12:46;7.28;;;6.25;;
70576;SDS011;58138;43.138;24.702;2023-08-21T06:15:13;10.13;;;6.07;;
70576;SDS011;58138;43.138;24.702;2023-08-21T06:17:39;10.65;;;6.38;;
70576;SDS011;58138;43.138;24.702;2023-08-21T06:20:05;8.32;;;6.40;;
70576;SDS011;58138;43.138;24.702;2023-08-21T06:22:33;12.82;;;6.63;;
70576;SDS011;58138;43.138;24.702;2023-08-21T06:24:59;6.70;;;6.10;;
70576;SDS011;58138;43.138;24.702;2023-08-21T06:27:24;8.18;;;6.07;;
70576;SDS011;58138;43.138;24.702;2023-08-21T06:29:50;12.75;;;6.47;;
70576;SDS011;58138;43.138;24.702;2023-08-21T06:34:58;12.05;;;6.20;;
70576;SDS011;58138;43.138;24.702;2023-08-21T06:37:24;10.40;;;6.15;;
70576;SDS011;58138;43.138;24.702;2023-08-21T06:39:50;13.00;;;6.10;;
70576;SDS011;58138;43.138;24.702;2023-08-21T06:44:47;8.90;;;5.90;;
70576;SDS011;58138;43.138;24.702;2023-08-21T06:49:44;13.82;;;5.95;;
70576;SDS011;58138;43.138;24.702;2023-08-21T06:52:10;9.50;;;5.68;;
70576;SDS011;58138;43.138;24.702;2023-08-21T06:54:35;9.73;;;5.72;;
70576;SDS011;58138;43.138;24.702;2023-08-21T06:57:01;9.38;;;5.85;;
70576;SDS011;58138;43.138;24.702;2023-08-21T06:59:26;10.68;;;5.97;;
70576;SDS011;58138;43.138;24.702;2023-08-21T07:01:52;10.88;;;6.35;;
70576;SDS011;58138;43.138;24.702;2023-08-21T07:04:17;6.90;;;5.60;;
70576;SDS011;58138;43.138;24.702;2023-08-21T07:06:43;10.43;;;5.47;;
70576;SDS011;58138;43.138;24.702;2023-08-21T07:09:08;11.20;;;5.47;;
70576;SDS011;58138;43.138;24.702;2023-08-21T07:11:35;9.40;;;5.18;;
70576;SDS011;58138;43.138;24.702;2023-08-21T07:14:00;6.90;;;5.18;;
70576;SDS011;58138;43.138;24.702;2023-08-21T07:16:26;8.82;;;5.60;;
70576;SDS011;58138;43.138;24.702;2023-08-21T07:18:51;11.00;;;5.55;;
70576;SDS011;58138;43.138;24.702;2023-08-21T07:21:17;8.90;;;5.28;;
70576;SDS011;58138;43.138;24.702;2023-08-21T07:23:42;9.38;;;5.22;;
70576;SDS011;58138;43.138;24.702;2023-08-21T07:26:08;10.60;;;6.43;;
70576;SDS011;58138;43.138;24.702;2023-08-21T07:28:34;9.95;;;5.47;;
70576;SDS011;58138;43.138;24.702;2023-08-21T07:31:01;6.95;;;5.15;;
70576;SDS011;58138;43.138;24.702;2023-08-21T07:33:27;8.32;;;5.38;;
70576;SDS011;58138;43.138;24.702;2023-08-21T07:35:56;8.95;;;5.38;;
70576;SDS011;58138;43.138;24.702;2023-08-21T07:38:22;8.77;;;5.65;;
70576;SDS011;58138;43.138;24.702;2023-08-21T07:40:48;13.45;;;8.95;;
70576;SDS011;58138;43.138;24.702;2023-08-21T07:43:13;12.90;;;7.13;;
70576;SDS011;58138;43.138;24.702;2023-08-21T07:45:39;12.93;;;6.15;;
70576;SDS011;58138;43.138;24.702;2023-08-21T07:48:04;12.05;;;5.93;;
70576;SDS011;58138;43.138;24.702;2023-08-21T07:50:30;10.48;;;7.05;;
70576;SDS011;58138;43.138;24.702;2023-08-21T07:52:56;9.90;;;5.63;;
70576;SDS011;58138;43.138;24.702;2023-08-21T07:55:21;9.90;;;5.18;;
70576;SDS011;58138;43.138;24.702;2023-08-21T07:57:47;8.98;;;4.70;;
70576;SDS011;58138;43.138;24.702;2023-08-21T08:00:12;9.32;;;4.90;;
70576;SDS011;58138;43.138;24.702;2023-08-21T08:02:38;8.93;;;4.35;;
70576;SDS011;58138;43.138;24.702;2023-08-21T08:05:05;9.05;;;5.30;;
70576;SDS011;58138;43.138;24.702;2023-08-21T08:07:31;9.55;;;4.07;;
70576;SDS011;58138;43.138;24.702;2023-08-21T08:09:56;11.73;;;4.22;;
70576;SDS011;58138;43.138;24.702;2023-08-21T08:12:22;7.05;;;4.32;;
70576;SDS011;58138;43.138;24.702;2023-08-21T08:14:48;10.93;;;4.38;;
70576;SDS011;58138;43.138;24.702;2023-08-21T08:17:13;11.35;;;4.47;;
70576;SDS011;58138;43.138;24.702;2023-08-21T08:19:39;10.13;;;4.15;;
70576;SDS011;58138;43.138;24.702;2023-08-21T08:22:04;8.77;;;4.40;;
70576;SDS011;58138;43.138;24.702;2023-08-21T08:24:30;11.63;;;4.40;;
70576;SDS011;58138;43.138;24.702;2023-08-21T08:26:56;5.35;;;3.85;;
70576;SDS011;58138;43.138;24.702;2023-08-21T08:29:22;13.02;;;4.28;;
70576;SDS011;58138;43.138;24.702;2023-08-21T08:31:47;10.70;;;4.35;;
70576;SDS011;58138;43.138;24.702;2023-08-21T08:34:13;9.02;;;4.00;;
70576;SDS011;58138;43.138;24.702;2023-08-21T08:36:39;5.63;;;3.70;;
70576;SDS011;58138;43.138;24.702;2023-08-21T08:39:06;4.97;;;3.33;;
70576;SDS011;58138;43.138;24.702;2023-08-21T08:41:39;11.50;;;4.00;;
70576;SDS011;58138;43.138;24.702;2023-08-21T08:44:08;10.30;;;4.00;;
70576;SDS011;58138;43.138;24.702;2023-08-21T08:46:34;7.97;;;3.60;;
70576;SDS011;58138;43.138;24.702;2023-08-21T08:49:00;5.80;;;3.42;;
70576;SDS011;58138;43.138;24.702;2023-08-21T08:51:28;5.65;;;3.50;;
70576;SDS011;58138;43.138;24.702;2023-08-21T08:53:54;5.85;;;3.35;;
70576;SDS011;58138;43.138;24.702;2023-08-21T08:56:20;4.43;;;3.35;;
70576;SDS011;58138;43.138;24.702;2023-08-21T08:58:46;5.22;;;3.30;;
70576;SDS011;58138;43.138;24.702;2023-08-21T09:01:12;5.63;;;3.35;;
70576;SDS011;58138;43.138;24.702;2023-08-21T09:03:38;6.60;;;3.40;;
70576;SDS011;58138;43.138;24.702;2023-08-21T09:06:03;11.65;;;3.83;;
70576;SDS011;58138;43.138;24.702;2023-08-21T09:08:29;8.07;;;3.60;;
70576;SDS011;58138;43.138;24.702;2023-08-21T09:10:54;7.88;;;3.90;;
70576;SDS011;58138;43.138;24.702;2023-08-21T09:13:20;9.55;;;3.40;;
70576;SDS011;58138;43.138;24.702;2023-08-21T09:15:47;10.15;;;3.70;;
70576;SDS011;58138;43.138;24.702;2023-08-21T09:18:14;8.60;;;3.70;;
70576;SDS011;58138;43.138;24.702;2023-08-21T09:20:40;8.70;;;3.58;;
70576;SDS011;58138;43.138;24.702;2023-08-21T09:23:06;7.65;;;3.20;;
70576;SDS011;58138;43.138;24.702;2023-08-21T09:25:36;8.63;;;3.70;;
70576;SDS011;58138;43.138;24.702;2023-08-21T09:28:04;5.80;;;3.30;;
70576;SDS011;58138;43.138;24.702;2023-08-21T09:30:46;16.63;;;10.80;;
70576;SDS011;58138;43.138;24.702;2023-08-21T09:33:19;15.52;;;10.18;;
70576;SDS011;58138;43.138;24.702;2023-08-21T09:35:46;9.93;;;6.20;;
70576;SDS011;58138;43.138;24.702;2023-08-21T09:38:12;7.95;;;4.03;;
70576;SDS011;58138;43.138;24.702;2023-08-21T09:40:43;13.65;;;4.50;;
70576;SDS011;58138;43.138;24.702;2023-08-21T09:43:10;10.60;;;3.97;;
70576;SDS011;58138;43.138;24.702;2023-08-21T09:45:37;4.45;;;3.63;;
70576;SDS011;58138;43.138;24.702;2023-08-21T09:48:03;7.63;;;3.63;;
70576;SDS011;58138;43.138;24.702;2023-08-21T09:50:29;10.98;;;3.80;;
70576;SDS011;58138;43.138;24.702;2023-08-21T09:52:56;10.27;;;3.60;;
70576;SDS011;58138;43.138;24.702;2023-08-21T09:55:22;7.40;;;3.95;;
70576;SDS011;58138;43.138;24.702;2023-08-21T09:57:48;11.02;;;4.30;;
70576;SDS011;58138;43.138;24.702;2023-08-21T10:00:22;10.13;;;4.13;;
70576;SDS011;58138;43.138;24.702;2023-08-21T10:02:49;11.57;;;3.70;;
70576;SDS011;58138;43.138;24.702;2023-08-21T10:05:16;6.13;;;3.90;;
70576;SDS011;58138;43.138;24.702;2023-08-21T10:07:44;7.45;;;4.18;;
70576;SDS011;58138;43.138;24.702;2023-08-21T10:10:13;5.00;;;3.95;;
70576;SDS011;58138;43.138;24.702;2023-08-21T10:12:38;7.80;;;4.00;;
70576;SDS011;58138;43.138;24.702;2023-08-21T10:15:04;9.00;;;3.97;;
70576;SDS011;58138;43.138;24.702;2023-08-21T10:17:31;7.45;;;4.18;;
70576;SDS011;58138;43.138;24.702;2023-08-21T10:20:02;7.82;;;4.05;;
70576;SDS011;58138;43.138;24.702;2023-08-21T10:22:38;6.20;;;3.72;;
70576;SDS011;58138;43.138;24.702;2023-08-21T10:25:20;12.05;;;3.80;;
70576;SDS011;58138;43.138;24.702;2023-08-21T10:27:54;6.97;;;3.43;;
70576;SDS011;58138;43.138;24.702;2023-08-21T10:30:21;9.88;;;3.88;;
70576;SDS011;58138;43.138;24.702;2023-08-21T10:32:50;5.15;;;3.17;;
70576;SDS011;58138;43.138;24.702;2023-08-21T10:35:23;7.20;;;3.75;;
70576;SDS011;58138;43.138;24.702;2023-08-21T10:40:36;9.23;;;3.75;;
70576;SDS011;58138;43.138;24.702;2023-08-21T10:43:02;6.63;;;3.53;;
70576;SDS011;58138;43.138;24.702;2023-08-21T10:45:29;4.40;;;3.70;;
70576;SDS011;58138;43.138;24.702;2023-08-21T10:48:00;8.05;;;3.80;;
70576;SDS011;58138;43.138;24.702;2023-08-21T10:50:26;7.25;;;3.45;;
70576;SDS011;58138;43.138;24.702;2023-08-21T10:52:52;8.05;;;3.80;;
70576;SDS011;58138;43.138;24.702;2023-08-21T10:55:18;4.03;;;3.45;;
70576;SDS011;58138;43.138;24.702;2023-08-21T10:57:46;6.75;;;3.72;;
70576;SDS011;58138;43.138;24.702;2023-08-21T11:00:13;7.72;;;3.60;;
70576;SDS011;58138;43.138;24.702;2023-08-21T11:02:44;10.80;;;3.80;;
70576;SDS011;58138;43.138;24.702;2023-08-21T11:05:10;5.68;;;3.30;;
70576;SDS011;58138;43.138;24.702;2023-08-21T11:07:41;8.25;;;3.78;;
70576;SDS011;58138;43.138;24.702;2023-08-21T11:10:11;8.98;;;3.90;;
70576;SDS011;58138;43.138;24.702;2023-08-21T11:12:39;9.32;;;3.42;;
70576;SDS011;58138;43.138;24.702;2023-08-21T11:15:16;6.03;;;3.60;;
70576;SDS011;58138;43.138;24.702;2023-08-21T11:17:42;5.20;;;3.53;;
70576;SDS011;58138;43.138;24.702;2023-08-21T11:20:09;5.35;;;3.55;;
70576;SDS011;58138;43.138;24.702;2023-08-21T11:22:35;6.57;;;3.65;;
70576;SDS011;58138;43.138;24.702;2023-08-21T11:25:00;6.32;;;3.60;;
70576;SDS011;58138;43.138;24.702;2023-08-21T11:27:26;8.60;;;3.55;;
70576;SDS011;58138;43.138;24.702;2023-08-21T11:29:58;6.65;;;3.35;;
70576;SDS011;58138;43.138;24.702;2023-08-21T11:32:25;4.68;;;3.10;;
70576;SDS011;58138;43.138;24.702;2023-08-21T11:34:51;7.00;;;3.40;;
70576;SDS011;58138;43.138;24.702;2023-08-21T11:37:19;3.88;;;3.45;;
70576;SDS011;58138;43.138;24.702;2023-08-21T11:39:47;8.05;;;3.60;;
70576;SDS011;58138;43.138;24.702;2023-08-21T11:42:15;7.18;;;3.50;;
70576;SDS011;58138;43.138;24.702;2023-08-21T11:44:48;6.57;;;3.58;;
70576;SDS011;58138;43.138;24.702;2023-08-21T11:47:16;5.25;;;3.30;;
70576;SDS011;58138;43.138;24.702;2023-08-21T11:49:43;5.00;;;3.40;;
70576;SDS011;58138;43.138;24.702;2023-08-21T11:52:12;7.00;;;5.38;;
70576;SDS011;58138;43.138;24.702;2023-08-21T11:54:38;5.85;;;3.30;;
70576;SDS011;58138;43.138;24.702;2023-08-21T11:57:09;5.80;;;3.38;;
70576;SDS011;58138;43.138;24.702;2023-08-21T11:59:37;7.30;;;3.70;;
70576;SDS011;58138;43.138;24.702;2023-08-21T12:02:10;5.53;;;3.85;;
70576;SDS011;58138;43.138;24.702;2023-08-21T12:04:39;5.60;;;3.33;;
70576;SDS011;58138;43.138;24.702;2023-08-21T12:07:04;8.82;;;3.25;;
70576;SDS011;58138;43.138;24.702;2023-08-21T12:09:30;4.13;;;3.13;;
70576;SDS011;58138;43.138;24.702;2023-08-21T12:11:56;5.15;;;3.08;;
70576;SDS011;58138;43.138;24.702;2023-08-21T12:14:22;6.78;;;3.65;;
70576;SDS011;58138;43.138;24.702;2023-08-21T12:16:48;6.63;;;3.80;;
70576;SDS011;58138;43.138;24.702;2023-08-21T12:19:14;4.30;;;3.90;;
70576;SDS011;58138;43.138;24.702;2023-08-21T12:21:40;7.95;;;3.70;;
70576;SDS011;58138;43.138;24.702;2023-08-21T12:24:05;7.43;;;3.40;;
70576;SDS011;58138;43.138;24.702;2023-08-21T12:26:34;5.97;;;3.40;;
70576;SDS011;58138;43.138;24.702;2023-08-21T12:29:00;9.05;;;3.50;;
70576;SDS011;58138;43.138;24.702;2023-08-21T12:31:26;5.03;;;3.47;;
70576;SDS011;58138;43.138;24.702;2023-08-21T12:33:52;6.75;;;3.47;;
70576;SDS011;58138;43.138;24.702;2023-08-21T12:36:17;8.55;;;3.83;;
70576;SDS011;58138;43.138;24.702;2023-08-21T12:38:43;7.50;;;3.42;;
70576;SDS011;58138;43.138;24.702;2023-08-21T12:41:09;4.57;;;3.20;;
70576;SDS011;58138;43.138;24.702;2023-08-21T12:43:34;5.95;;;3.30;;
70576;SDS011;58138;43.138;24.702;2023-08-21T12:46:00;9.48;;;3.58;;
70576;SDS011;58138;43.138;24.702;2023-08-21T12:48:25;7.55;;;3.42;;
70576;SDS011;58138;43.138;24.702;2023-08-21T12:50:51;7.05;;;3.92;;
70576;SDS011;58138;43.138;24.702;2023-08-21T12:53:16;5.90;;;3.55;;
70576;SDS011;58138;43.138;24.702;2023-08-21T12:55:42;4.53;;;3.45;;
70576;SDS011;58138;43.138;24.702;2023-08-21T12:58:07;7.32;;;3.70;;
70576;SDS011;58138;43.138;24.702;2023-08-21T13:00:33;8.85;;;3.60;;
70576;SDS011;58138;43.138;24.702;2023-08-21T13:02:59;5.63;;;3.90;;
70576;SDS011;58138;43.138;24.702;2023-08-21T13:05:24;8.23;;;4.00;;
70576;SDS011;58138;43.138;24.702;2023-08-21T13:07:50;7.13;;;3.60;;
70576;SDS011;58138;43.138;24.702;2023-08-21T13:10:16;7.43;;;3.70;;
70576;SDS011;58138;43.138;24.702;2023-08-21T13:12:41;5.05;;;3.45;;
70576;SDS011;58138;43.138;24.702;2023-08-21T13:15:07;50.97;;;5.38;;
70576;SDS011;58138;43.138;24.702;2023-08-21T13:17:33;7.25;;;5.15;;
70576;SDS011;58138;43.138;24.702;2023-08-21T13:19:59;4.72;;;3.80;;
70576;SDS011;58138;43.138;24.702;2023-08-21T13:22:25;7.25;;;3.80;;
70576;SDS011;58138;43.138;24.702;2023-08-21T13:24:50;6.03;;;3.45;;
70576;SDS011;58138;43.138;24.702;2023-08-21T13:27:16;5.97;;;3.22;;
70576;SDS011;58138;43.138;24.702;2023-08-21T13:29:41;4.65;;;3.47;;
70576;SDS011;58138;43.138;24.702;2023-08-21T13:32:07;9.50;;;3.40;;
70576;SDS011;58138;43.138;24.702;2023-08-21T13:34:33;6.50;;;3.20;;
70576;SDS011;58138;43.138;24.702;2023-08-21T13:36:58;7.18;;;3.65;;
70576;SDS011;58138;43.138;24.702;2023-08-21T13:39:24;5.80;;;3.35;;
70576;SDS011;58138;43.138;24.702;2023-08-21T13:41:51;6.57;;;3.17;;
70576;SDS011;58138;43.138;24.702;2023-08-21T13:44:17;7.85;;;3.40;;
70576;SDS011;58138;43.138;24.702;2023-08-21T13:46:42;4.38;;;3.40;;
70576;SDS011;58138;43.138;24.702;2023-08-21T13:49:08;7.18;;;3.38;;
70576;SDS011;58138;43.138;24.702;2023-08-21T13:51:34;9.88;;;5.55;;
70576;SDS011;58138;43.138;24.702;2023-08-21T13:54:00;8.10;;;3.67;;
70576;SDS011;58138;43.138;24.702;2023-08-21T13:56:26;8.95;;;3.80;;
70576;SDS011;58138;43.138;24.702;2023-08-21T13:58:51;7.20;;;3.28;;
70576;SDS011;58138;43.138;24.702;2023-08-21T14:01:17;7.95;;;3.75;;
70576;SDS011;58138;43.138;24.702;2023-08-21T14:03:43;13.82;;;3.70;;
70576;SDS011;58138;43.138;24.702;2023-08-21T14:06:08;10.20;;;3.78;;
70576;SDS011;58138;43.138;24.702;2023-08-21T14:08:36;11.18;;;4.05;;
70576;SDS011;58138;43.138;24.702;2023-08-21T14:11:02;8.45;;;3.88;;
70576;SDS011;58138;43.138;24.702;2023-08-21T14:13:28;9.25;;;4.10;;
70576;SDS011;58138;43.138;24.702;2023-08-21T14:15:54;11.82;;;4.22;;
70576;SDS011;58138;43.138;24.702;2023-08-21T14:18:19;6.82;;;4.40;;
70576;SDS011;58138;43.138;24.702;2023-08-21T14:20:45;11.13;;;4.18;;
70576;SDS011;58138;43.138;24.702;2023-08-21T14:23:10;5.32;;;4.10;;
70576;SDS011;58138;43.138;24.702;2023-08-21T14:25:36;7.50;;;3.80;;
70576;SDS011;58138;43.138;24.702;2023-08-21T14:28:02;8.38;;;3.95;;
70576;SDS011;58138;43.138;24.702;2023-08-21T14:30:28;8.52;;;4.20;;
70576;SDS011;58138;43.138;24.702;2023-08-21T14:32:54;7.75;;;4.20;;
70576;SDS011;58138;43.138;24.702;2023-08-21T14:35:20;9.73;;;3.90;;
70576;SDS011;58138;43.138;24.702;2023-08-21T14:37:46;7.40;;;3.97;;